Forside
METAR-TAF:

METAR-TAF

Lufthavne :

Tokyo International Airport

Tokyo-Haneda, Japan

Breddekreds: 35-33N, længdekreds: 139-47E, højde: 5 m

Aktuelle vejr

Denne rapport blev lavet for 32 minutter siden, kl. 20:30 UTC
Vind 15 kt fra sydsydvest
Temperatur 28°C
Fugtighed 84%
Tryk 1014 hPa
Sigt 10 km eller mere
Nogle få skyer i en højde af 1500 ft
Brudte skyer

METAR: RJTT 142030Z 20015KT 9999 FEW015 BKN/// 28/25 Q1014 NOSIG RMK 1CU015 A2996

Tid: 06:02 (21:02 UTC)

Vejrudsigter

Denne rapport blev lavet for 3 timer og 57 minutter siden, kl. 17:05 UTC
Foreløbig gælder fra 14 på 18 UTC til 16 på 00 UTC
Vind 14 kt fra sydsydvest
Sigt 10 km eller mere
Nogle få skyer i en højde af 1500 ft
Midlertidig
fra 15 på 21 UTC til 16 på 00 UTC
Vind 24 kt fra sydsydvest med vindstød på up til 34 kt

TAF: RJTT 141705Z 1418/1600 20014KT 9999 FEW015 TEMPO 1521/1600 20024G34KT

Vejrobservationer og prognoser fra mere end 4000 lufthavne (METAR og TAF).

De gule og røde prikker repræsenterer de meteorologiske stationer.

Flyt musen over at se navnet på stationen.

Så klik over at se vejr observationer og prognoser.

At skifte det kort: Klik på de grønne knapper med et sort kors for at zoome ind; på den grønne knap med en bindestreg for at zoome ud; eller på de grønne pile for tilstødende kort.


METAR-TAF: